sensor_id;sensor_type;location;lat;lon;timestamp;P1;durP1;ratioP1;P2;durP2;ratioP2
16270;SDS011;8243;49.048;8.396;2022-12-29T00:01:37;2.67;;;1.50;;
16270;SDS011;8243;49.048;8.396;2022-12-29T00:04:03;2.43;;;1.90;;
16270;SDS011;8243;49.048;8.396;2022-12-29T00:06:29;4.30;;;2.03;;
16270;SDS011;8243;49.048;8.396;2022-12-29T00:08:55;3.80;;;1.73;;
16270;SDS011;8243;49.048;8.396;2022-12-29T00:11:21;3.63;;;1.83;;
16270;SDS011;8243;49.048;8.396;2022-12-29T00:13:49;2.90;;;1.57;;
16270;SDS011;8243;49.048;8.396;2022-12-29T00:16:34;2.80;;;1.60;;
16270;SDS011;8243;49.048;8.396;2022-12-29T00:19:00;2.70;;;1.70;;
16270;SDS011;8243;49.048;8.396;2022-12-29T00:21:26;2.50;;;1.80;;
16270;SDS011;8243;49.048;8.396;2022-12-29T00:24:18;3.77;;;1.50;;
16270;SDS011;8243;49.048;8.396;2022-12-29T00:26:55;4.10;;;1.50;;
16270;SDS011;8243;49.048;8.396;2022-12-29T00:29:40;2.43;;;1.50;;
16270;SDS011;8243;49.048;8.396;2022-12-29T00:32:25;2.23;;;1.40;;
16270;SDS011;8243;49.048;8.396;2022-12-29T00:35:09;2.07;;;1.30;;
16270;SDS011;8243;49.048;8.396;2022-12-29T00:37:38;2.10;;;1.43;;
16270;SDS011;8243;49.048;8.396;2022-12-29T00:40:25;2.77;;;1.60;;
16270;SDS011;8243;49.048;8.396;2022-12-29T00:43:09;3.13;;;1.60;;
16270;SDS011;8243;49.048;8.396;2022-12-29T00:45:53;1.73;;;1.30;;
16270;SDS011;8243;49.048;8.396;2022-12-29T00:48:19;2.47;;;1.60;;
16270;SDS011;8243;49.048;8.396;2022-12-29T00:51:05;4.87;;;1.30;;
16270;SDS011;8243;49.048;8.396;2022-12-29T00:53:31;3.73;;;1.60;;
16270;SDS011;8243;49.048;8.396;2022-12-29T00:55:57;1.57;;;1.30;;
16270;SDS011;8243;49.048;8.396;2022-12-29T00:58:22;4.20;;;1.50;;
16270;SDS011;8243;49.048;8.396;2022-12-29T01:00:48;3.43;;;1.80;;
16270;SDS011;8243;49.048;8.396;2022-12-29T01:03:13;2.77;;;1.80;;
16270;SDS011;8243;49.048;8.396;2022-12-29T01:05:39;3.03;;;1.60;;
16270;SDS011;8243;49.048;8.396;2022-12-29T01:08:04;3.67;;;2.00;;
16270;SDS011;8243;49.048;8.396;2022-12-29T01:10:30;1.73;;;1.40;;
16270;SDS011;8243;49.048;8.396;2022-12-29T01:12:56;2.33;;;1.50;;
16270;SDS011;8243;49.048;8.396;2022-12-29T01:15:21;2.73;;;1.60;;
16270;SDS011;8243;49.048;8.396;2022-12-29T01:17:47;2.10;;;1.70;;
16270;SDS011;8243;49.048;8.396;2022-12-29T01:20:13;3.63;;;1.80;;
16270;SDS011;8243;49.048;8.396;2022-12-29T01:22:38;2.77;;;1.80;;
16270;SDS011;8243;49.048;8.396;2022-12-29T01:25:04;2.63;;;1.87;;
16270;SDS011;8243;49.048;8.396;2022-12-29T01:27:31;3.30;;;2.00;;
16270;SDS011;8243;49.048;8.396;2022-12-29T01:29:56;2.77;;;1.67;;
16270;SDS011;8243;49.048;8.396;2022-12-29T01:32:22;2.67;;;1.83;;
16270;SDS011;8243;49.048;8.396;2022-12-29T01:34:48;2.53;;;2.10;;
16270;SDS011;8243;49.048;8.396;2022-12-29T01:37:13;4.23;;;1.77;;
16270;SDS011;8243;49.048;8.396;2022-12-29T01:39:39;3.17;;;2.10;;
16270;SDS011;8243;49.048;8.396;2022-12-29T01:42:14;4.40;;;2.20;;
16270;SDS011;8243;49.048;8.396;2022-12-29T01:47:15;3.17;;;1.87;;
16270;SDS011;8243;49.048;8.396;2022-12-29T01:50:06;3.07;;;1.80;;
16270;SDS011;8243;49.048;8.396;2022-12-29T01:52:42;2.00;;;1.60;;
16270;SDS011;8243;49.048;8.396;2022-12-29T01:55:12;3.33;;;1.60;;
16270;SDS011;8243;49.048;8.396;2022-12-29T01:57:39;3.83;;;1.93;;
16270;SDS011;8243;49.048;8.396;2022-12-29T02:00:08;2.77;;;1.73;;
16270;SDS011;8243;49.048;8.396;2022-12-29T02:02:36;2.87;;;1.80;;
16270;SDS011;8243;49.048;8.396;2022-12-29T02:05:04;2.50;;;1.60;;
16270;SDS011;8243;49.048;8.396;2022-12-29T02:07:43;2.47;;;1.90;;
16270;SDS011;8243;49.048;8.396;2022-12-29T02:10:09;4.67;;;1.90;;
16270;SDS011;8243;49.048;8.396;2022-12-29T02:12:35;3.40;;;1.50;;
16270;SDS011;8243;49.048;8.396;2022-12-29T02:15:01;2.60;;;1.73;;
16270;SDS011;8243;49.048;8.396;2022-12-29T02:17:36;2.97;;;1.60;;
16270;SDS011;8243;49.048;8.396;2022-12-29T02:34:17;3.23;;;1.70;;
16270;SDS011;8243;49.048;8.396;2022-12-29T02:36:58;2.67;;;1.43;;
16270;SDS011;8243;49.048;8.396;2022-12-29T02:39:35;3.80;;;1.60;;
16270;SDS011;8243;49.048;8.396;2022-12-29T02:50:18;2.53;;;1.60;;
16270;SDS011;8243;49.048;8.396;2022-12-29T02:53:05;2.57;;;1.50;;
16270;SDS011;8243;49.048;8.396;2022-12-29T02:55:33;1.93;;;1.50;;
16270;SDS011;8243;49.048;8.396;2022-12-29T03:00:33;3.03;;;1.57;;
16270;SDS011;8243;49.048;8.396;2022-12-29T03:03:11;3.97;;;1.60;;
16270;SDS011;8243;49.048;8.396;2022-12-29T03:05:53;3.03;;;1.40;;
16270;SDS011;8243;49.048;8.396;2022-12-29T03:08:40;1.80;;;1.70;;
16270;SDS011;8243;49.048;8.396;2022-12-29T03:11:13;1.50;;;1.40;;
16270;SDS011;8243;49.048;8.396;2022-12-29T03:14:07;1.97;;;1.50;;
16270;SDS011;8243;49.048;8.396;2022-12-29T03:16:57;1.67;;;1.50;;
16270;SDS011;8243;49.048;8.396;2022-12-29T03:19:32;2.23;;;1.30;;
16270;SDS011;8243;49.048;8.396;2022-12-29T03:22:03;2.43;;;1.10;;
16270;SDS011;8243;49.048;8.396;2022-12-29T03:24:52;1.87;;;1.37;;
16270;SDS011;8243;49.048;8.396;2022-12-29T03:27:22;2.13;;;1.40;;
16270;SDS011;8243;49.048;8.396;2022-12-29T03:29:53;1.57;;;1.17;;
16270;SDS011;8243;49.048;8.396;2022-12-29T03:32:23;1.87;;;1.30;;
16270;SDS011;8243;49.048;8.396;2022-12-29T03:34:53;1.90;;;1.30;;
16270;SDS011;8243;49.048;8.396;2022-12-29T03:37:21;3.00;;;1.47;;
16270;SDS011;8243;49.048;8.396;2022-12-29T03:39:50;1.47;;;1.37;;
16270;SDS011;8243;49.048;8.396;2022-12-29T03:42:17;2.90;;;1.40;;
16270;SDS011;8243;49.048;8.396;2022-12-29T03:44:46;2.33;;;1.30;;
16270;SDS011;8243;49.048;8.396;2022-12-29T03:47:12;1.30;;;1.20;;
16270;SDS011;8243;49.048;8.396;2022-12-29T03:49:39;2.47;;;1.40;;
16270;SDS011;8243;49.048;8.396;2022-12-29T03:52:05;2.67;;;1.50;;
16270;SDS011;8243;49.048;8.396;2022-12-29T03:54:32;2.40;;;1.47;;
16270;SDS011;8243;49.048;8.396;2022-12-29T03:56:58;2.50;;;1.50;;
16270;SDS011;8243;49.048;8.396;2022-12-29T03:59:23;2.27;;;1.50;;
16270;SDS011;8243;49.048;8.396;2022-12-29T04:01:49;2.63;;;1.30;;
16270;SDS011;8243;49.048;8.396;2022-12-29T04:04:14;1.57;;;1.30;;
16270;SDS011;8243;49.048;8.396;2022-12-29T04:06:40;1.63;;;1.30;;
16270;SDS011;8243;49.048;8.396;2022-12-29T04:09:06;1.90;;;1.40;;
16270;SDS011;8243;49.048;8.396;2022-12-29T04:11:32;2.53;;;1.50;;
16270;SDS011;8243;49.048;8.396;2022-12-29T04:13:57;1.63;;;1.30;;
16270;SDS011;8243;49.048;8.396;2022-12-29T04:16:23;2.13;;;1.30;;
16270;SDS011;8243;49.048;8.396;2022-12-29T04:18:48;2.07;;;1.20;;
16270;SDS011;8243;49.048;8.396;2022-12-29T04:21:14;1.77;;;1.37;;
16270;SDS011;8243;49.048;8.396;2022-12-29T04:23:40;2.53;;;1.70;;
16270;SDS011;8243;49.048;8.396;2022-12-29T04:26:06;1.63;;;1.40;;
16270;SDS011;8243;49.048;8.396;2022-12-29T04:28:32;2.33;;;1.43;;
16270;SDS011;8243;49.048;8.396;2022-12-29T04:30:58;2.20;;;1.40;;
16270;SDS011;8243;49.048;8.396;2022-12-29T04:33:24;2.07;;;1.40;;
16270;SDS011;8243;49.048;8.396;2022-12-29T04:35:50;1.97;;;1.30;;
16270;SDS011;8243;49.048;8.396;2022-12-29T04:38:18;2.13;;;1.37;;
16270;SDS011;8243;49.048;8.396;2022-12-29T04:40:43;1.67;;;1.43;;
16270;SDS011;8243;49.048;8.396;2022-12-29T04:43:09;2.13;;;1.50;;
16270;SDS011;8243;49.048;8.396;2022-12-29T04:45:36;2.77;;;1.30;;
16270;SDS011;8243;49.048;8.396;2022-12-29T04:48:02;3.70;;;1.43;;
16270;SDS011;8243;49.048;8.396;2022-12-29T04:50:28;3.33;;;1.50;;
16270;SDS011;8243;49.048;8.396;2022-12-29T04:52:54;1.87;;;1.30;;
16270;SDS011;8243;49.048;8.396;2022-12-29T04:55:19;5.53;;;1.60;;
16270;SDS011;8243;49.048;8.396;2022-12-29T04:57:45;1.67;;;1.40;;
16270;SDS011;8243;49.048;8.396;2022-12-29T05:00:11;1.50;;;1.40;;
16270;SDS011;8243;49.048;8.396;2022-12-29T05:02:37;1.77;;;1.40;;
16270;SDS011;8243;49.048;8.396;2022-12-29T05:05:03;1.60;;;1.30;;
16270;SDS011;8243;49.048;8.396;2022-12-29T05:07:29;3.57;;;1.93;;
16270;SDS011;8243;49.048;8.396;2022-12-29T05:09:55;3.33;;;1.53;;
16270;SDS011;8243;49.048;8.396;2022-12-29T05:12:21;3.10;;;1.60;;
16270;SDS011;8243;49.048;8.396;2022-12-29T05:14:46;2.50;;;1.40;;
16270;SDS011;8243;49.048;8.396;2022-12-29T05:17:12;3.83;;;1.47;;
16270;SDS011;8243;49.048;8.396;2022-12-29T05:19:37;1.77;;;1.60;;
16270;SDS011;8243;49.048;8.396;2022-12-29T05:22:03;1.90;;;1.50;;
16270;SDS011;8243;49.048;8.396;2022-12-29T05:24:29;2.03;;;1.30;;
16270;SDS011;8243;49.048;8.396;2022-12-29T05:26:54;2.07;;;1.60;;
16270;SDS011;8243;49.048;8.396;2022-12-29T05:29:20;4.17;;;1.83;;
16270;SDS011;8243;49.048;8.396;2022-12-29T05:31:45;1.60;;;1.50;;
16270;SDS011;8243;49.048;8.396;2022-12-29T05:34:11;2.53;;;1.53;;
16270;SDS011;8243;49.048;8.396;2022-12-29T05:36:37;2.13;;;1.40;;
16270;SDS011;8243;49.048;8.396;2022-12-29T05:39:02;2.00;;;1.70;;
16270;SDS011;8243;49.048;8.396;2022-12-29T05:41:28;1.73;;;1.53;;
16270;SDS011;8243;49.048;8.396;2022-12-29T05:43:54;1.97;;;1.77;;
16270;SDS011;8243;49.048;8.396;2022-12-29T05:46:19;3.57;;;1.87;;
16270;SDS011;8243;49.048;8.396;2022-12-29T05:48:45;2.97;;;1.80;;
16270;SDS011;8243;49.048;8.396;2022-12-29T05:51:10;2.60;;;1.90;;
16270;SDS011;8243;49.048;8.396;2022-12-29T05:53:36;2.83;;;1.80;;
16270;SDS011;8243;49.048;8.396;2022-12-29T05:56:01;2.87;;;1.80;;
16270;SDS011;8243;49.048;8.396;2022-12-29T05:58:27;2.13;;;1.70;;
16270;SDS011;8243;49.048;8.396;2022-12-29T06:00:53;2.53;;;1.87;;
16270;SDS011;8243;49.048;8.396;2022-12-29T06:03:18;2.80;;;1.90;;
16270;SDS011;8243;49.048;8.396;2022-12-29T06:05:44;4.33;;;1.70;;
16270;SDS011;8243;49.048;8.396;2022-12-29T06:08:11;4.33;;;1.93;;
16270;SDS011;8243;49.048;8.396;2022-12-29T06:10:36;4.53;;;1.90;;
16270;SDS011;8243;49.048;8.396;2022-12-29T06:13:02;2.43;;;2.00;;
16270;SDS011;8243;49.048;8.396;2022-12-29T06:15:30;3.43;;;1.97;;
16270;SDS011;8243;49.048;8.396;2022-12-29T06:17:56;3.17;;;2.10;;
16270;SDS011;8243;49.048;8.396;2022-12-29T06:20:22;2.63;;;1.70;;
16270;SDS011;8243;49.048;8.396;2022-12-29T06:22:47;3.60;;;1.93;;
16270;SDS011;8243;49.048;8.396;2022-12-29T06:25:14;1.77;;;1.67;;
16270;SDS011;8243;49.048;8.396;2022-12-29T06:27:40;3.63;;;1.73;;
16270;SDS011;8243;49.048;8.396;2022-12-29T06:30:05;4.03;;;1.90;;
16270;SDS011;8243;49.048;8.396;2022-12-29T06:32:31;2.27;;;1.90;;
16270;SDS011;8243;49.048;8.396;2022-12-29T06:34:57;3.23;;;1.80;;
16270;SDS011;8243;49.048;8.396;2022-12-29T06:37:22;2.03;;;1.57;;
16270;SDS011;8243;49.048;8.396;2022-12-29T06:39:48;2.93;;;1.83;;
16270;SDS011;8243;49.048;8.396;2022-12-29T06:42:13;3.47;;;2.00;;
16270;SDS011;8243;49.048;8.396;2022-12-29T06:44:39;2.63;;;1.60;;
16270;SDS011;8243;49.048;8.396;2022-12-29T06:47:05;4.43;;;1.90;;
16270;SDS011;8243;49.048;8.396;2022-12-29T06:49:30;3.00;;;1.77;;
16270;SDS011;8243;49.048;8.396;2022-12-29T06:51:56;2.17;;;1.73;;
16270;SDS011;8243;49.048;8.396;2022-12-29T06:54:23;2.07;;;1.67;;
16270;SDS011;8243;49.048;8.396;2022-12-29T06:56:48;2.13;;;1.93;;
16270;SDS011;8243;49.048;8.396;2022-12-29T06:59:14;3.77;;;1.70;;
16270;SDS011;8243;49.048;8.396;2022-12-29T07:01:39;1.90;;;1.60;;
16270;SDS011;8243;49.048;8.396;2022-12-29T07:04:05;2.43;;;1.90;;
16270;SDS011;8243;49.048;8.396;2022-12-29T07:06:31;2.00;;;1.70;;
16270;SDS011;8243;49.048;8.396;2022-12-29T07:08:56;2.53;;;1.80;;
16270;SDS011;8243;49.048;8.396;2022-12-29T07:11:22;2.60;;;1.90;;
16270;SDS011;8243;49.048;8.396;2022-12-29T07:13:48;3.97;;;2.20;;
16270;SDS011;8243;49.048;8.396;2022-12-29T07:16:14;2.53;;;1.70;;
16270;SDS011;8243;49.048;8.396;2022-12-29T07:18:39;2.60;;;1.87;;
16270;SDS011;8243;49.048;8.396;2022-12-29T07:21:05;3.93;;;1.93;;
16270;SDS011;8243;49.048;8.396;2022-12-29T07:23:31;3.50;;;2.10;;
16270;SDS011;8243;49.048;8.396;2022-12-29T07:26:06;5.20;;;1.77;;
16270;SDS011;8243;49.048;8.396;2022-12-29T07:28:34;3.10;;;1.90;;
16270;SDS011;8243;49.048;8.396;2022-12-29T07:31:01;2.03;;;1.80;;
16270;SDS011;8243;49.048;8.396;2022-12-29T07:33:30;3.60;;;1.90;;
16270;SDS011;8243;49.048;8.396;2022-12-29T07:35:56;4.57;;;1.70;;
16270;SDS011;8243;49.048;8.396;2022-12-29T07:38:22;1.93;;;1.70;;
16270;SDS011;8243;49.048;8.396;2022-12-29T07:40:48;4.37;;;2.07;;
16270;SDS011;8243;49.048;8.396;2022-12-29T07:43:14;4.83;;;2.13;;
16270;SDS011;8243;49.048;8.396;2022-12-29T07:45:39;2.63;;;1.80;;
16270;SDS011;8243;49.048;8.396;2022-12-29T07:48:05;2.73;;;2.03;;
16270;SDS011;8243;49.048;8.396;2022-12-29T07:50:33;2.17;;;1.90;;
16270;SDS011;8243;49.048;8.396;2022-12-29T07:52:59;2.33;;;1.77;;
16270;SDS011;8243;49.048;8.396;2022-12-29T07:55:24;3.43;;;1.80;;
16270;SDS011;8243;49.048;8.396;2022-12-29T07:57:52;2.53;;;1.70;;
16270;SDS011;8243;49.048;8.396;2022-12-29T08:00:18;2.73;;;1.80;;
16270;SDS011;8243;49.048;8.396;2022-12-29T08:02:44;2.73;;;1.80;;
16270;SDS011;8243;49.048;8.396;2022-12-29T08:05:09;3.07;;;2.03;;
16270;SDS011;8243;49.048;8.396;2022-12-29T08:07:35;2.10;;;1.90;;
16270;SDS011;8243;49.048;8.396;2022-12-29T08:10:01;2.27;;;1.70;;
16270;SDS011;8243;49.048;8.396;2022-12-29T08:12:27;3.40;;;1.77;;
16270;SDS011;8243;49.048;8.396;2022-12-29T08:14:53;2.27;;;1.80;;
16270;SDS011;8243;49.048;8.396;2022-12-29T08:17:18;2.87;;;1.80;;
16270;SDS011;8243;49.048;8.396;2022-12-29T08:19:44;2.33;;;1.90;;
16270;SDS011;8243;49.048;8.396;2022-12-29T08:22:09;3.00;;;1.87;;
16270;SDS011;8243;49.048;8.396;2022-12-29T08:24:35;1.73;;;1.63;;
16270;SDS011;8243;49.048;8.396;2022-12-29T08:27:02;2.27;;;1.63;;
16270;SDS011;8243;49.048;8.396;2022-12-29T08:29:28;2.60;;;2.00;;
16270;SDS011;8243;49.048;8.396;2022-12-29T08:31:53;2.70;;;1.93;;
16270;SDS011;8243;49.048;8.396;2022-12-29T08:34:19;3.10;;;1.60;;
16270;SDS011;8243;49.048;8.396;2022-12-29T08:36:44;2.20;;;1.70;;
16270;SDS011;8243;49.048;8.396;2022-12-29T08:39:10;2.10;;;1.90;;
16270;SDS011;8243;49.048;8.396;2022-12-29T08:41:35;3.07;;;2.00;;
16270;SDS011;8243;49.048;8.396;2022-12-29T08:44:01;2.27;;;1.70;;
16270;SDS011;8243;49.048;8.396;2022-12-29T08:46:26;3.13;;;1.90;;
16270;SDS011;8243;49.048;8.396;2022-12-29T08:48:53;2.77;;;1.77;;
16270;SDS011;8243;49.048;8.396;2022-12-29T08:51:19;2.53;;;1.80;;
16270;SDS011;8243;49.048;8.396;2022-12-29T08:53:44;2.60;;;1.77;;
16270;SDS011;8243;49.048;8.396;2022-12-29T08:56:10;2.53;;;1.60;;
16270;SDS011;8243;49.048;8.396;2022-12-29T08:58:36;3.30;;;1.77;;
16270;SDS011;8243;49.048;8.396;2022-12-29T09:01:02;1.70;;;1.60;;
16270;SDS011;8243;49.048;8.396;2022-12-29T09:03:28;2.87;;;1.70;;
16270;SDS011;8243;49.048;8.396;2022-12-29T09:05:53;2.50;;;1.90;;
16270;SDS011;8243;49.048;8.396;2022-12-29T09:08:20;4.07;;;1.90;;
16270;SDS011;8243;49.048;8.396;2022-12-29T09:10:46;3.87;;;2.00;;
16270;SDS011;8243;49.048;8.396;2022-12-29T09:13:12;4.60;;;1.83;;
16270;SDS011;8243;49.048;8.396;2022-12-29T09:15:38;2.33;;;1.77;;
16270;SDS011;8243;49.048;8.396;2022-12-29T09:18:04;2.33;;;1.63;;
16270;SDS011;8243;49.048;8.396;2022-12-29T09:20:31;2.47;;;1.60;;
16270;SDS011;8243;49.048;8.396;2022-12-29T09:22:56;2.10;;;1.70;;
16270;SDS011;8243;49.048;8.396;2022-12-29T09:25:22;2.60;;;1.60;;
16270;SDS011;8243;49.048;8.396;2022-12-29T09:27:49;4.87;;;2.27;;
16270;SDS011;8243;49.048;8.396;2022-12-29T09:30:18;3.77;;;1.60;;
16270;SDS011;8243;49.048;8.396;2022-12-29T09:32:44;3.97;;;1.77;;
16270;SDS011;8243;49.048;8.396;2022-12-29T09:35:11;2.77;;;1.77;;
16270;SDS011;8243;49.048;8.396;2022-12-29T09:37:38;2.83;;;1.50;;
16270;SDS011;8243;49.048;8.396;2022-12-29T09:40:04;2.63;;;1.83;;
16270;SDS011;8243;49.048;8.396;2022-12-29T09:47:30;4.90;;;2.20;;
16270;SDS011;8243;49.048;8.396;2022-12-29T09:52:44;2.70;;;2.17;;
16270;SDS011;8243;49.048;8.396;2022-12-29T09:55:19;3.73;;;1.97;;
16270;SDS011;8243;49.048;8.396;2022-12-29T10:00:20;2.50;;;1.73;;
16270;SDS011;8243;49.048;8.396;2022-12-29T10:07:55;3.23;;;1.87;;
16270;SDS011;8243;49.048;8.396;2022-12-29T10:16:26;6.17;;;2.00;;
16270;SDS011;8243;49.048;8.396;2022-12-29T10:19:07;4.47;;;1.73;;
16270;SDS011;8243;49.048;8.396;2022-12-29T10:24:55;2.67;;;1.90;;
16270;SDS011;8243;49.048;8.396;2022-12-29T10:27:27;2.80;;;2.00;;
16270;SDS011;8243;49.048;8.396;2022-12-29T10:29:56;1.97;;;1.87;;
16270;SDS011;8243;49.048;8.396;2022-12-29T10:32:30;1.93;;;1.60;;
16270;SDS011;8243;49.048;8.396;2022-12-29T10:35:06;4.50;;;2.30;;
16270;SDS011;8243;49.048;8.396;2022-12-29T10:37:41;2.93;;;1.80;;
16270;SDS011;8243;49.048;8.396;2022-12-29T10:40:25;3.87;;;1.93;;
16270;SDS011;8243;49.048;8.396;2022-12-29T10:43:24;7.77;;;4.33;;
16270;SDS011;8243;49.048;8.396;2022-12-29T10:45:51;6.07;;;2.60;;
16270;SDS011;8243;49.048;8.396;2022-12-29T10:48:20;3.03;;;2.23;;
16270;SDS011;8243;49.048;8.396;2022-12-29T10:50:49;3.30;;;2.43;;
16270;SDS011;8243;49.048;8.396;2022-12-29T10:53:20;4.23;;;2.20;;
16270;SDS011;8243;49.048;8.396;2022-12-29T10:55:49;4.83;;;2.30;;
16270;SDS011;8243;49.048;8.396;2022-12-29T10:58:16;2.80;;;2.10;;
16270;SDS011;8243;49.048;8.396;2022-12-29T11:00:43;3.40;;;2.33;;
16270;SDS011;8243;49.048;8.396;2022-12-29T11:03:29;6.80;;;2.80;;
16270;SDS011;8243;49.048;8.396;2022-12-29T11:06:09;5.57;;;2.40;;
16270;SDS011;8243;49.048;8.396;2022-12-29T11:08:40;3.33;;;2.43;;
16270;SDS011;8243;49.048;8.396;2022-12-29T11:11:11;4.77;;;2.33;;
16270;SDS011;8243;49.048;8.396;2022-12-29T11:13:49;2.37;;;2.00;;
16270;SDS011;8243;49.048;8.396;2022-12-29T11:16:32;3.40;;;2.23;;
16270;SDS011;8243;49.048;8.396;2022-12-29T11:18:59;3.63;;;2.20;;
16270;SDS011;8243;49.048;8.396;2022-12-29T11:21:27;2.40;;;2.20;;
16270;SDS011;8243;49.048;8.396;2022-12-29T11:23:58;4.97;;;2.20;;
16270;SDS011;8243;49.048;8.396;2022-12-29T11:26:29;3.97;;;2.20;;
16270;SDS011;8243;49.048;8.396;2022-12-29T11:31:39;2.87;;;1.80;;
16270;SDS011;8243;49.048;8.396;2022-12-29T11:34:06;4.30;;;2.67;;
16270;SDS011;8243;49.048;8.396;2022-12-29T11:36:32;3.60;;;2.77;;
16270;SDS011;8243;49.048;8.396;2022-12-29T11:38:59;3.53;;;2.13;;
16270;SDS011;8243;49.048;8.396;2022-12-29T11:41:26;2.40;;;1.80;;
16270;SDS011;8243;49.048;8.396;2022-12-29T11:43:54;6.57;;;2.67;;
16270;SDS011;8243;49.048;8.396;2022-12-29T11:46:24;4.47;;;2.80;;
16270;SDS011;8243;49.048;8.396;2022-12-29T11:48:52;2.70;;;2.00;;
16270;SDS011;8243;49.048;8.396;2022-12-29T11:51:23;4.47;;;2.07;;
16270;SDS011;8243;49.048;8.396;2022-12-29T11:53:55;2.23;;;2.00;;
16270;SDS011;8243;49.048;8.396;2022-12-29T11:56:41;2.23;;;1.77;;
16270;SDS011;8243;49.048;8.396;2022-12-29T12:01:52;3.70;;;1.60;;
16270;SDS011;8243;49.048;8.396;2022-12-29T12:04:18;2.37;;;1.77;;
16270;SDS011;8243;49.048;8.396;2022-12-29T12:09:27;2.47;;;2.00;;
16270;SDS011;8243;49.048;8.396;2022-12-29T12:11:56;3.30;;;1.77;;
16270;SDS011;8243;49.048;8.396;2022-12-29T12:14:38;2.57;;;1.83;;
16270;SDS011;8243;49.048;8.396;2022-12-29T12:17:12;3.10;;;1.93;;
16270;SDS011;8243;49.048;8.396;2022-12-29T12:19:49;2.90;;;1.40;;
16270;SDS011;8243;49.048;8.396;2022-12-29T12:22:28;1.60;;;1.50;;
16270;SDS011;8243;49.048;8.396;2022-12-29T12:24:59;1.50;;;1.37;;
16270;SDS011;8243;49.048;8.396;2022-12-29T12:27:38;2.37;;;1.50;;
16270;SDS011;8243;49.048;8.396;2022-12-29T12:30:21;1.30;;;1.20;;
16270;SDS011;8243;49.048;8.396;2022-12-29T12:38:06;1.87;;;1.20;;
16270;SDS011;8243;49.048;8.396;2022-12-29T12:43:46;3.27;;;1.23;;
16270;SDS011;8243;49.048;8.396;2022-12-29T12:54:43;2.37;;;1.10;;
16270;SDS011;8243;49.048;8.396;2022-12-29T13:00:20;1.53;;;1.20;;
16270;SDS011;8243;49.048;8.396;2022-12-29T13:11:37;2.40;;;1.33;;
16270;SDS011;8243;49.048;8.396;2022-12-29T13:17:17;2.03;;;1.30;;
16270;SDS011;8243;49.048;8.396;2022-12-29T13:20:07;3.37;;;1.23;;
16270;SDS011;8243;49.048;8.396;2022-12-29T13:22:38;2.70;;;1.70;;
16270;SDS011;8243;49.048;8.396;2022-12-29T13:28:03;4.87;;;2.73;;
16270;SDS011;8243;49.048;8.396;2022-12-29T13:31:11;1.93;;;1.47;;
16270;SDS011;8243;49.048;8.396;2022-12-29T13:34:20;1.60;;;1.50;;
16270;SDS011;8243;49.048;8.396;2022-12-29T13:37:10;2.47;;;1.67;;
16270;SDS011;8243;49.048;8.396;2022-12-29T13:39:52;2.20;;;1.50;;
16270;SDS011;8243;49.048;8.396;2022-12-29T13:42:22;1.77;;;1.40;;
16270;SDS011;8243;49.048;8.396;2022-12-29T13:44:52;1.77;;;1.33;;
16270;SDS011;8243;49.048;8.396;2022-12-29T13:49:56;2.03;;;1.33;;
16270;SDS011;8243;49.048;8.396;2022-12-29T13:55:28;1.23;;;1.10;;
16270;SDS011;8243;49.048;8.396;2022-12-29T14:00:48;1.40;;;1.30;;
16270;SDS011;8243;49.048;8.396;2022-12-29T14:03:38;1.27;;;1.17;;
16270;SDS011;8243;49.048;8.396;2022-12-29T14:08:41;1.70;;;1.03;;
16270;SDS011;8243;49.048;8.396;2022-12-29T14:11:08;2.97;;;1.30;;
16270;SDS011;8243;49.048;8.396;2022-12-29T14:13:39;2.57;;;1.10;;
16270;SDS011;8243;49.048;8.396;2022-12-29T14:16:09;1.30;;;1.20;;
16270;SDS011;8243;49.048;8.396;2022-12-29T14:18:48;1.63;;;1.20;;
16270;SDS011;8243;49.048;8.396;2022-12-29T14:23:47;2.50;;;1.47;;
16270;SDS011;8243;49.048;8.396;2022-12-29T14:29:45;1.07;;;1.00;;
16270;SDS011;8243;49.048;8.396;2022-12-29T14:31:51;1.60;;;0.90;;
16270;SDS011;8243;49.048;8.396;2022-12-29T14:40:02;3.77;;;1.20;;
16270;SDS011;8243;49.048;8.396;2022-12-29T14:44:50;2.37;;;1.03;;
16270;SDS011;8243;49.048;8.396;2022-12-29T14:47:33;2.00;;;1.00;;
16270;SDS011;8243;49.048;8.396;2022-12-29T14:52:46;2.53;;;1.30;;
16270;SDS011;8243;49.048;8.396;2022-12-29T14:55:29;4.97;;;1.40;;
16270;SDS011;8243;49.048;8.396;2022-12-29T15:00:47;2.50;;;1.30;;
16270;SDS011;8243;49.048;8.396;2022-12-29T15:05:50;2.17;;;1.57;;
16270;SDS011;8243;49.048;8.396;2022-12-29T15:08:29;2.13;;;1.43;;
16270;SDS011;8243;49.048;8.396;2022-12-29T15:10:59;3.50;;;1.30;;
16270;SDS011;8243;49.048;8.396;2022-12-29T15:13:39;3.03;;;1.10;;
16270;SDS011;8243;49.048;8.396;2022-12-29T15:18:52;1.20;;;1.00;;
16270;SDS011;8243;49.048;8.396;2022-12-29T15:21:20;2.37;;;1.30;;
16270;SDS011;8243;49.048;8.396;2022-12-29T15:23:51;1.93;;;1.10;;
16270;SDS011;8243;49.048;8.396;2022-12-29T15:26:17;1.83;;;1.20;;
16270;SDS011;8243;49.048;8.396;2022-12-29T15:28:47;2.43;;;1.57;;
16270;SDS011;8243;49.048;8.396;2022-12-29T15:31:21;2.67;;;1.60;;
16270;SDS011;8243;49.048;8.396;2022-12-29T15:33:51;3.27;;;1.33;;
16270;SDS011;8243;49.048;8.396;2022-12-29T15:36:28;2.37;;;1.10;;
16270;SDS011;8243;49.048;8.396;2022-12-29T15:39:01;2.13;;;1.40;;
16270;SDS011;8243;49.048;8.396;2022-12-29T15:41:54;3.03;;;1.50;;
16270;SDS011;8243;49.048;8.396;2022-12-29T15:44:28;3.43;;;2.87;;
16270;SDS011;8243;49.048;8.396;2022-12-29T15:47:03;6.57;;;3.93;;
16270;SDS011;8243;49.048;8.396;2022-12-29T15:49:30;4.43;;;3.03;;
16270;SDS011;8243;49.048;8.396;2022-12-29T15:51:56;4.13;;;2.40;;
16270;SDS011;8243;49.048;8.396;2022-12-29T15:54:23;6.47;;;5.30;;
16270;SDS011;8243;49.048;8.396;2022-12-29T15:56:51;3.77;;;3.20;;
16270;SDS011;8243;49.048;8.396;2022-12-29T15:59:30;3.63;;;3.30;;
16270;SDS011;8243;49.048;8.396;2022-12-29T16:01:58;12.13;;;8.57;;
16270;SDS011;8243;49.048;8.396;2022-12-29T16:04:29;7.90;;;4.70;;
16270;SDS011;8243;49.048;8.396;2022-12-29T16:07:02;17.53;;;11.43;;
16270;SDS011;8243;49.048;8.396;2022-12-29T16:09:34;8.60;;;5.90;;
16270;SDS011;8243;49.048;8.396;2022-12-29T16:12:05;4.97;;;2.87;;
16270;SDS011;8243;49.048;8.396;2022-12-29T16:14:34;4.30;;;2.43;;
16270;SDS011;8243;49.048;8.396;2022-12-29T16:17:06;4.33;;;2.40;;
16270;SDS011;8243;49.048;8.396;2022-12-29T16:19:37;3.63;;;3.03;;
16270;SDS011;8243;49.048;8.396;2022-12-29T16:22:09;3.97;;;3.13;;
16270;SDS011;8243;49.048;8.396;2022-12-29T16:24:37;5.47;;;3.37;;
16270;SDS011;8243;49.048;8.396;2022-12-29T16:27:25;5.93;;;4.27;;
16270;SDS011;8243;49.048;8.396;2022-12-29T16:29:57;6.57;;;4.20;;
16270;SDS011;8243;49.048;8.396;2022-12-29T16:32:29;8.90;;;5.67;;
16270;SDS011;8243;49.048;8.396;2022-12-29T16:35:37;5.83;;;4.10;;
16270;SDS011;8243;49.048;8.396;2022-12-29T16:40:55;4.07;;;2.60;;
16270;SDS011;8243;49.048;8.396;2022-12-29T16:43:26;4.13;;;2.77;;
16270;SDS011;8243;49.048;8.396;2022-12-29T16:48:24;2.63;;;2.40;;
16270;SDS011;8243;49.048;8.396;2022-12-29T16:51:05;4.17;;;2.37;;
16270;SDS011;8243;49.048;8.396;2022-12-29T16:53:38;3.57;;;2.90;;
16270;SDS011;8243;49.048;8.396;2022-12-29T16:59:09;7.27;;;4.63;;
16270;SDS011;8243;49.048;8.396;2022-12-29T17:01:46;9.70;;;7.03;;
16270;SDS011;8243;49.048;8.396;2022-12-29T17:04:12;5.60;;;4.70;;
16270;SDS011;8243;49.048;8.396;2022-12-29T17:06:39;6.33;;;4.40;;
16270;SDS011;8243;49.048;8.396;2022-12-29T17:09:21;3.50;;;3.00;;
16270;SDS011;8243;49.048;8.396;2022-12-29T17:11:50;4.47;;;3.47;;
16270;SDS011;8243;49.048;8.396;2022-12-29T17:17:49;9.33;;;6.50;;
16270;SDS011;8243;49.048;8.396;2022-12-29T17:19:56;4.27;;;3.20;;
16270;SDS011;8243;49.048;8.396;2022-12-29T17:22:27;6.53;;;3.40;;
16270;SDS011;8243;49.048;8.396;2022-12-29T17:24:54;4.30;;;2.50;;
16270;SDS011;8243;49.048;8.396;2022-12-29T17:27:43;5.17;;;3.47;;
16270;SDS011;8243;49.048;8.396;2022-12-29T17:30:10;3.60;;;3.30;;
16270;SDS011;8243;49.048;8.396;2022-12-29T17:32:45;6.33;;;2.50;;
16270;SDS011;8243;49.048;8.396;2022-12-29T17:35:16;3.47;;;2.00;;
16270;SDS011;8243;49.048;8.396;2022-12-29T17:37:44;3.57;;;2.00;;
16270;SDS011;8243;49.048;8.396;2022-12-29T17:40:17;3.03;;;2.10;;